Flight Track Log - Related Links

Times and Time Zones

All times are in EDT time to prevent confusion due to time zone crossing. See the TRS423 flight status page for this flight to view local times or setup timezone preferences in your user account.

Time Position Orientation Groundspeed Altitude Reporting Facility
EDT Latitude Longitude Course Direction KTS MPH feet Rate Location/Type
Wed 02:47:44 PM 28.4000 -81.3000 221° Southwest 181 208 700  Level Orlando TRACON
Wed 02:48:50 PM 28.3500 -81.3500 221° Southwest 253 291 2,600 2,238 Climbing Orlando TRACON
Wed 02:49:50 PM 28.3167 -81.4000 233° Southwest 251 289 5,400 3,050 Climbing Orlando TRACON
Wed 02:50:50 PM 28.3000 -81.4833 257° West 265 305 8,700 2,900 Climbing Orlando TRACON
Wed 02:51:50 PM 28.3333 -81.5500 300° West 283 326 11,200 2,085 Climbing Orlando TRACON
Wed 02:53:34 PM 28.4428 -81.4786 30° Northeast 344 396 14,400 1,730 Climbing Jacksonville Center
Wed 02:54:33 PM 28.4875 -81.3811 62° Northeast 328 377 15,900 1,613 Climbing Jacksonville Center
Wed 02:55:33 PM 28.5489 -81.2856 54° Northeast 353 406 17,600 1,636 Climbing Jacksonville Center
Wed 02:56:34 PM 28.6208 -81.1922 49° Northeast 370 426 19,200 1,650 Climbing Jacksonville Center
Wed 02:57:33 PM 28.7181 -81.1336 28° Northeast 380 437 20,900 1,361 Climbing Jacksonville Center
Wed 02:58:33 PM 28.8283 -81.1033 14° North 388 447 21,900 1,050 Climbing Jacksonville Center
Wed 02:59:33 PM 28.9469 -81.0892 North 402 463 23,000 1,041 Climbing Jacksonville Center
Wed 03:00:34 PM 29.0700 -81.0847 North 425 489 24,000 1,150 Climbing Jacksonville Center
Wed 03:01:33 PM 29.1956 -81.1039 352° North 437 503 25,300 2,200 Climbing Jacksonville Center
Wed 03:02:34 PM 29.3106 -81.1256 351° North 442 509 28,400 2,000 Climbing Jacksonville Center
Wed 03:03:33 PM 29.4278 -81.1425 353° North 423 487 29,300 750 Climbing Jacksonville Center
Wed 03:04:34 PM 29.5556 -81.1642 352° North 423 487 29,900 645 Climbing Jacksonville Center
Wed 03:05:34 PM 29.6706 -81.1811 353° North 435 501 30,600 700 Climbing Jacksonville Center
Wed 03:06:34 PM 29.7961 -81.2006 352° North 447 514 31,300 800 Climbing Jacksonville Center
Wed 03:07:34 PM 29.9236 -81.2197 353° North 457 526 32,200 857 Climbing Jacksonville Center
Wed 03:08:33 PM 30.0492 -81.2417 351° North 457 526 33,000 400 Climbing Jacksonville Center
Wed 03:09:34 PM 30.1789 -81.2611 353° North 463 533 33,000  Level Jacksonville Center
Wed 03:11:33 PM 30.4342 -81.3025 352° North 463 533 33,000  Level Jacksonville Center
Wed 03:12:33 PM 30.5617 -81.3219 353° North 463 533 33,000  Level Jacksonville Center
Wed 03:13:34 PM 30.6892 -81.3442 351° North 463 533 33,000  Level Jacksonville Center
Wed 03:14:34 PM 30.8144 -81.3347 North 463 533 33,000  Level Jacksonville Center
Wed 03:15:34 PM 30.9306 -81.2650 27° Northeast 448 516 33,000  Level Jacksonville Center
Wed 03:16:34 PM 31.0422 -81.1953 28° Northeast 448 516 33,000  Level Jacksonville Center
Wed 03:17:34 PM 31.1564 -81.1278 27° Northeast 453 521 33,000  Level Jacksonville Center
Wed 03:18:34 PM 31.2722 -81.0550 28° Northeast 460 529 33,000  Level Jacksonville Center
Wed 03:19:34 PM 31.3961 -80.9747 29° Northeast 460 529 33,000  Level Jacksonville Center
Wed 03:20:33 PM 31.4997 -80.9117 27° Northeast 451 519 33,000  Level Jacksonville Center
Wed 03:21:34 PM 31.6236 -80.8358 28° Northeast 451 519 33,000  Level Jacksonville Center
Wed 03:22:34 PM 31.7250 -80.7750 27° Northeast 446 513 33,000  Level Jacksonville Center
Wed 03:23:34 PM 31.8489 -80.6964 28° Northeast 446 513 33,000  Level Jacksonville Center
Wed 03:24:34 PM 31.9625 -80.6275 27° Northeast 446 513 33,000  Level Jacksonville Center
Wed 03:25:34 PM 32.0658 -80.5636 28° Northeast 446 513 33,000  Level Jacksonville Center
Wed 03:26:34 PM 32.1772 -80.4922 28° Northeast 446 513 33,000  Level Jacksonville Center
Wed 03:27:34 PM 32.2906 -80.4203 28° Northeast 452 520 33,000  Level Jacksonville Center
Wed 03:28:34 PM 32.4061 -80.3483 28° Northeast 452 520 33,000  Level Jacksonville Center
Wed 03:29:34 PM 32.5194 -80.2761 28° Northeast 452 520 33,000  Level Jacksonville Center
Wed 03:30:34 PM 32.6219 -80.1844 37° Northeast 452 520 33,000  Level Jacksonville Center
Wed 03:31:33 PM 32.7242 -80.0925 37° Northeast 458 527 33,000  Level Jacksonville Center
Wed 03:32:34 PM 32.8267 -80.0003 37° Northeast 458 527 33,000  Level Jacksonville Center
Wed 03:33:34 PM 32.9308 -79.9078 37° Northeast 463 533 33,000  Level Jacksonville Center
Wed 03:34:34 PM 33.0453 -79.8025 38° Northeast 469 540 33,000  Level Jacksonville Center
Wed 03:35:34 PM 33.1472 -79.7119 37° Northeast 469 540 33,000  Level Jacksonville Center
Wed 03:36:34 PM 33.2533 -79.6164 37° Northeast 469 540 33,000  Level Jacksonville Center
Wed 03:37:34 PM 33.3553 -79.5256 37° Northeast 469 540 33,000  Level Jacksonville Center
Wed 03:38:34 PM 33.4592 -79.4297 38° Northeast 469 540 33,000  Level Jacksonville Center
Wed 03:40:05 PM 33.5992 -79.2986 38° Northeast 465 535 33,000  Level Washington Center
Wed 03:41:06 PM 33.7064 -79.2036 36° Northeast 465 535 33,000 -49 Level Washington Center
Wed 03:42:08 PM 33.8072 -79.1106 37° Northeast 465 535 32,900  Descending Washington Center
Wed 03:43:08 PM 33.9100 -79.0147 38° Northeast 465 535 33,000 51 Climbing Washington Center
Wed 03:44:06 PM 34.0128 -78.9239 36° Northeast 465 535 33,000  Level Washington Center
Wed 03:45:07 PM 34.1178 -78.8253 38° Northeast 465 535 33,000  Level Washington Center
Wed 03:46:07 PM 34.2183 -78.7311 38° Northeast 465 535 33,000  Level Washington Center
Wed 03:47:08 PM 34.3208 -78.6394 36° Northeast 465 535 33,000  Level Washington Center
Wed 03:48:06 PM 34.4214 -78.5375 40° Northeast 465 535 33,000 -51 Level Washington Center
Wed 03:49:06 PM 34.5200 -78.4353 40° Northeast 465 535 32,900  Descending Washington Center
Wed 03:50:07 PM 34.6019 -78.3194 49° Northeast 459 528 33,000 49 Climbing Washington Center
Wed 03:51:08 PM 34.6614 -78.1803 63° Northeast 453 521 33,000  Level Washington Center
Wed 03:52:08 PM 34.7225 -78.0456 61° Northeast 453 521 33,000  Level Washington Center
Wed 03:53:07 PM 34.7817 -77.9033 63° Northeast 453 521 33,000  Level Washington Center
Wed 03:54:08 PM 34.8450 -77.7508 63° Northeast 453 521 33,000  Level Washington Center
Wed 03:55:08 PM 34.9058 -77.6131 62° Northeast 453 521 33,000  Level Washington Center
Wed 03:56:06 PM 34.9664 -77.4778 61° Northeast 453 521 33,000  Level Washington Center
Wed 03:57:06 PM 35.0292 -77.3422 60° Northeast 448 516 33,000  Level Washington Center
Wed 03:58:07 PM 35.0894 -77.2039 62° Northeast 448 516 33,000  Level Washington Center
Wed 03:59:07 PM 35.1661 -77.0836 52° Northeast 453 521 33,000  Level Washington Center
Wed 04:00:08 PM 35.2406 -76.9756 50° Northeast 453 521 33,000  Level Washington Center
Wed 04:01:06 PM 35.3211 -76.8547 51° Northeast 458 527 33,000  Level Washington Center
Wed 04:02:07 PM 35.4100 -76.7211 51° Northeast 458 527 33,000 -50 Level Washington Center
Wed 04:03:07 PM 35.4906 -76.5947 52° Northeast 463 533 32,900 -50 Descending Washington Center
Wed 04:04:08 PM 35.5769 -76.4706 49° Northeast 469 540 32,900 50 Level Washington Center
Wed 04:05:08 PM 35.6922 -76.4053 25° Northeast 453 521 33,000 51 Climbing Washington Center
Wed 04:06:06 PM 35.8178 -76.3606 16° North 444 511 33,000  Level Washington Center
Wed 04:07:07 PM 35.9431 -76.3131 17° North 455 524 33,000 -50 Level Washington Center
Wed 04:08:07 PM 36.0644 -76.2653 18° North 460 529 32,900 -545 Descending Washington Center
Wed 04:09:08 PM 36.1856 -76.2175 18° North 460 529 31,900 -1,017 Descending Washington Center
Wed 04:10:05 PM 36.3047 -76.1694 18° North 460 529 30,900 -966 Descending Washington Center
Wed 04:11:06 PM 36.4281 -76.1211 17° North 455 524 30,000 -942 Descending Washington Center
Wed 04:12:06 PM 36.5514 -76.0756 17° North 462 532 29,000 -545 Descending Washington Center
Wed 04:13:07 PM 36.6706 -76.0244 19° North 462 532 28,900  Descending Washington Center
Wed 04:14:08 PM 36.7958 -75.9758 17° North 462 532 29,000 50 Climbing Washington Center
Wed 04:15:08 PM 36.9150 -75.9269 18° North 456 525 29,000  Level Washington Center
Wed 04:16:06 PM 37.0278 -75.8858 16° North 461 531 29,000  Level Washington Center
Wed 04:17:07 PM 37.1489 -75.8367 18° North 456 525 29,000  Level Washington Center
Wed 04:18:08 PM 37.2678 -75.7903 17° North 451 519 29,000 -198 Level Washington Center
Wed 04:19:08 PM 37.3867 -75.7408 18° North 451 519 28,600 -712 Descending Washington Center
Wed 04:20:06 PM 37.5036 -75.6939 18° North 441 507 27,600 -1,008 Descending Washington Center
Wed 04:21:07 PM 37.6206 -75.6494 17° North 441 507 26,600 -984 Descending Washington Center
Wed 04:22:08 PM 37.7331 -75.5997 19° North 441 507 25,600 -807 Descending Washington Center
Wed 04:23:06 PM 37.8500 -75.5522 18° North 435 501 25,000 -605 Descending Washington Center
Wed 04:24:07 PM 37.9644 -75.5022 19° North 435 501 24,400 -787 Descending Washington Center
Wed 04:25:08 PM 38.0750 -75.4572 18° North 430 495 23,400 -992 Descending Washington Center
Wed 04:26:08 PM 38.1814 -75.3911 26° Northeast 425 489 22,400 -1,026 Descending Washington Center
Wed 04:27:05 PM 38.2875 -75.3272 25° Northeast 420 483 21,400 -1,119 Descending Washington Center
Wed 04:28:06 PM 38.4000 -75.2447 30° Northeast 420 483 20,200 -1,438 Descending Washington Center
Wed 04:29:06 PM 38.5061 -75.1778 26° Northeast 415 478 18,500 -2,033 Descending Washington Center
Wed 04:30:07 PM 38.6078 -75.1133 26° Northeast 415 478 16,100 -1,721 Descending Washington Center
Wed 04:31:08 PM 38.7036 -75.0517 27° Northeast 395 455 15,000 -555 Descending Washington Center
Wed 04:32:06 PM 38.8011 -74.9897 26° Northeast 390 449 15,000 -403 Level Washington Center
Wed 04:33:07 PM 38.9031 -74.9514 16° North 384 442 14,200 -893 Descending Washington Center
Wed 04:34:07 PM 39.0094 -74.9558 358° North 373 429 13,200 -992 Descending Washington Center
Wed 04:35:08 PM 39.1117 -74.9575 359° North 367 422 12,200 -958 Descending Washington Center
Wed 04:36:06 PM 39.2033 -74.9594 359° North 349 402 11,300 -814 Descending Washington Center
Wed 04:37:06 PM 39.2889 -74.9614 359° North 321 369 10,600 -953 Descending Washington Center
Wed 04:38:56 PM 39.4333 -74.9667 358° North 296 341 8,600 -1,094 Descending Philadelphia TRACON
Wed 04:39:56 PM 39.5167 -75.0000 343° North 294 338 7,500 -1,053 Descending Philadelphia TRACON
Wed 04:40:50 PM 39.6000 -75.0167 351° North 292 336 6,600 -694 Descending Philadelphia TRACON
Wed 04:41:57 PM 39.6833 -75.0500 343° North 290 334 6,100 -250 Descending Philadelphia TRACON
Wed 04:42:50 PM 39.7500 -75.0667 349° North 287 330 6,100 -300 Level Philadelphia TRACON
Wed 04:43:57 PM 39.8167 -75.0500 11° North 226 260 5,500 -898 Descending Philadelphia TRACON
Wed 04:44:57 PM 39.8333 -74.9667 75° East 228 262 4,200 -737 Descending Philadelphia TRACON
Wed 04:45:51 PM 39.8500 -74.9167 67° East 203 234 4,100 -53 Descending Philadelphia TRACON
Wed 04:46:51 PM 39.9000 -74.9167 360° North 189 217 4,100 -350 Level Philadelphia TRACON
Wed 04:47:51 PM 39.9333 -74.9667 311° West 169 194 3,400 -500 Descending Philadelphia TRACON
Wed 04:48:51 PM 39.9167 -75.0167 247° West 164 189 3,100 -600 Descending Philadelphia TRACON
Wed 04:49:51 PM 39.9000 -75.0833 252° West 166 191 2,200 -842 Descending Philadelphia TRACON
Wed 04:50:45 PM 39.9000 -75.1333 270° West 162 186 1,500 -762 Descending Philadelphia TRACON
Wed 04:51:57 PM 39.8833 -75.1833 247° West 134 154 600 -750 Descending Philadelphia TRACON
Wed 04:53:00 PM 39.8667 -75.2333 279° West  Level FlightAware Approximate
Wed 05:00:00 PM 39.8722 -75.2409 279° West  Level Estimated

Login

Don't have an account? Register now (free) for customized features, flight alerts, and more!